sensor_id;sensor_type;location;lat;lon;timestamp;pressure;altitude;pressure_sealevel;temperature;humidity
24620;BME280;12763;55.802;37.404;2022-11-15T00:02:07;100162.88;;;2.66;49.31
24620;BME280;12763;55.802;37.404;2022-11-15T00:04:51;100157.31;;;2.40;49.19
24620;BME280;12763;55.802;37.404;2022-11-15T00:07:59;100156.94;;;2.53;49.56
24620;BME280;12763;55.802;37.404;2022-11-15T00:10:59;100154.72;;;2.38;49.71
24620;BME280;12763;55.802;37.404;2022-11-15T00:13:50;100164.84;;;2.19;50.14
24620;BME280;12763;55.802;37.404;2022-11-15T00:16:34;100152.38;;;2.44;49.23
24620;BME280;12763;55.802;37.404;2022-11-15T00:19:19;100145.19;;;2.52;48.62
24620;BME280;12763;55.802;37.404;2022-11-15T00:22:06;100137.25;;;2.59;48.70
24620;BME280;12763;55.802;37.404;2022-11-15T00:24:59;100148.75;;;2.53;48.19
24620;BME280;12763;55.802;37.404;2022-11-15T00:27:43;100148.28;;;2.40;48.49
24620;BME280;12763;55.802;37.404;2022-11-15T00:30:31;100146.81;;;2.63;48.79
24620;BME280;12763;55.802;37.404;2022-11-15T00:33:22;100139.16;;;2.49;49.20
24620;BME280;12763;55.802;37.404;2022-11-15T00:36:08;100125.25;;;2.52;49.19
24620;BME280;12763;55.802;37.404;2022-11-15T00:38:54;100124.50;;;2.59;48.90
24620;BME280;12763;55.802;37.404;2022-11-15T00:41:40;100123.72;;;2.67;48.95
24620;BME280;12763;55.802;37.404;2022-11-15T00:44:27;100123.81;;;2.92;48.72
24620;BME280;12763;55.802;37.404;2022-11-15T00:47:12;100120.16;;;2.84;48.58
24620;BME280;12763;55.802;37.404;2022-11-15T00:49:58;100124.72;;;2.66;49.10
24620;BME280;12763;55.802;37.404;2022-11-15T00:52:43;100119.66;;;2.53;49.76
24620;BME280;12763;55.802;37.404;2022-11-15T00:55:34;100118.31;;;2.57;49.68
24620;BME280;12763;55.802;37.404;2022-11-15T00:58:20;100115.38;;;2.51;50.26
24620;BME280;12763;55.802;37.404;2022-11-15T01:01:12;100117.44;;;2.39;50.45
24620;BME280;12763;55.802;37.404;2022-11-15T01:04:00;100110.53;;;2.45;50.50
24620;BME280;12763;55.802;37.404;2022-11-15T01:06:49;100106.59;;;2.29;50.73
24620;BME280;12763;55.802;37.404;2022-11-15T01:09:40;100118.63;;;2.09;50.93
24620;BME280;12763;55.802;37.404;2022-11-15T01:12:28;100109.03;;;2.05;52.08
24620;BME280;12763;55.802;37.404;2022-11-15T01:15:12;100102.09;;;2.20;51.21
24620;BME280;12763;55.802;37.404;2022-11-15T01:17:58;100097.13;;;2.33;51.27
24620;BME280;12763;55.802;37.404;2022-11-15T01:20:43;100093.19;;;2.18;51.30
24620;BME280;12763;55.802;37.404;2022-11-15T01:23:31;100088.47;;;2.20;51.60
24620;BME280;12763;55.802;37.404;2022-11-15T01:26:16;100083.13;;;2.28;51.26
24620;BME280;12763;55.802;37.404;2022-11-15T01:29:01;100087.75;;;2.46;50.83
24620;BME280;12763;55.802;37.404;2022-11-15T01:31:52;100073.53;;;2.24;50.67
24620;BME280;12763;55.802;37.404;2022-11-15T01:34:41;100089.88;;;1.97;51.82
24620;BME280;12763;55.802;37.404;2022-11-15T01:37:29;100078.69;;;1.73;52.07
24620;BME280;12763;55.802;37.404;2022-11-15T01:40:14;100092.50;;;2.16;51.58
24620;BME280;12763;55.802;37.404;2022-11-15T01:43:31;100088.56;;;2.01;51.91
24620;BME280;12763;55.802;37.404;2022-11-15T01:49:21;100087.59;;;2.20;51.38
24620;BME280;12763;55.802;37.404;2022-11-15T01:52:09;100083.97;;;2.02;51.12
24620;BME280;12763;55.802;37.404;2022-11-15T01:55:09;100080.31;;;2.20;51.18
24620;BME280;12763;55.802;37.404;2022-11-15T01:58:00;100078.97;;;2.24;50.98
24620;BME280;12763;55.802;37.404;2022-11-15T02:00:49;100078.19;;;2.32;50.87
24620;BME280;12763;55.802;37.404;2022-11-15T02:03:45;100080.00;;;2.23;50.98
24620;BME280;12763;55.802;37.404;2022-11-15T02:06:36;100073.25;;;2.00;51.52
24620;BME280;12763;55.802;37.404;2022-11-15T02:09:24;100088.00;;;2.25;51.08
24620;BME280;12763;55.802;37.404;2022-11-15T02:12:18;100084.81;;;2.29;50.41
24620;BME280;12763;55.802;37.404;2022-11-15T02:15:05;100075.47;;;2.14;50.80
24620;BME280;12763;55.802;37.404;2022-11-15T02:21:18;100066.06;;;1.99;51.13
24620;BME280;12763;55.802;37.404;2022-11-15T02:24:39;100072.63;;;2.33;50.33
24620;BME280;12763;55.802;37.404;2022-11-15T02:27:42;100068.88;;;2.52;50.38
24620;BME280;12763;55.802;37.404;2022-11-15T02:30:48;100064.25;;;2.17;51.22
24620;BME280;12763;55.802;37.404;2022-11-15T02:33:50;100086.25;;;1.79;52.91
24620;BME280;12763;55.802;37.404;2022-11-15T02:43:15;100060.53;;;1.64;53.52
24620;BME280;12763;55.802;37.404;2022-11-15T02:46:38;100067.13;;;1.61;54.41
24620;BME280;12763;55.802;37.404;2022-11-15T02:49:47;100057.09;;;1.62;53.83
24620;BME280;12763;55.802;37.404;2022-11-15T02:52:32;100051.94;;;1.59;53.55
24620;BME280;12763;55.802;37.404;2022-11-15T03:04:44;100056.91;;;2.00;52.54
24620;BME280;12763;55.802;37.404;2022-11-15T03:10:42;100034.81;;;2.03;52.79
24620;BME280;12763;55.802;37.404;2022-11-15T03:13:49;100032.50;;;2.08;52.79
24620;BME280;12763;55.802;37.404;2022-11-15T03:16:49;100028.59;;;1.93;52.76
24620;BME280;12763;55.802;37.404;2022-11-15T03:19:46;100027.81;;;2.01;52.33
24620;BME280;12763;55.802;37.404;2022-11-15T03:22:36;100027.75;;;2.10;52.63
24620;BME280;12763;55.802;37.404;2022-11-15T03:25:26;100027.88;;;1.91;52.85
24620;BME280;12763;55.802;37.404;2022-11-15T03:28:25;100014.88;;;1.85;53.08
24620;BME280;12763;55.802;37.404;2022-11-15T03:31:17;100024.06;;;1.57;53.58
24620;BME280;12763;55.802;37.404;2022-11-15T03:34:39;100032.50;;;1.54;52.80
24620;BME280;12763;55.802;37.404;2022-11-15T03:40:59;100025.44;;;1.88;52.02
24620;BME280;12763;55.802;37.404;2022-11-15T03:43:49;100023.97;;;1.94;51.89
24620;BME280;12763;55.802;37.404;2022-11-15T03:46:49;100026.34;;;2.06;51.63
24620;BME280;12763;55.802;37.404;2022-11-15T03:49:55;100016.06;;;2.00;51.07
24620;BME280;12763;55.802;37.404;2022-11-15T03:52:46;100025.97;;;2.01;51.80
24620;BME280;12763;55.802;37.404;2022-11-15T03:55:32;100018.94;;;1.71;51.45
24620;BME280;12763;55.802;37.404;2022-11-15T03:58:19;100009.28;;;1.59;52.65
24620;BME280;12763;55.802;37.404;2022-11-15T04:01:03;100010.25;;;1.95;51.77
24620;BME280;12763;55.802;37.404;2022-11-15T04:03:51;100012.88;;;2.05;51.60
24620;BME280;12763;55.802;37.404;2022-11-15T04:06:36;100022.47;;;2.09;51.37
24620;BME280;12763;55.802;37.404;2022-11-15T04:09:21;100004.28;;;2.27;51.28
24620;BME280;12763;55.802;37.404;2022-11-15T04:12:05;100006.00;;;1.83;51.75
24620;BME280;12763;55.802;37.404;2022-11-15T04:14:56;100016.59;;;1.86;51.32
24620;BME280;12763;55.802;37.404;2022-11-15T04:17:56;100013.44;;;2.08;51.55
24620;BME280;12763;55.802;37.404;2022-11-15T04:20:46;100000.13;;;1.88;51.36
24620;BME280;12763;55.802;37.404;2022-11-15T04:23:50;100017.50;;;2.04;51.63
24620;BME280;12763;55.802;37.404;2022-11-15T04:26:37;100006.59;;;2.22;51.16
24620;BME280;12763;55.802;37.404;2022-11-15T04:29:22;100008.88;;;2.26;50.87
24620;BME280;12763;55.802;37.404;2022-11-15T04:32:19;100005.19;;;2.00;51.91
24620;BME280;12763;55.802;37.404;2022-11-15T04:35:05;100004.06;;;2.20;51.07
24620;BME280;12763;55.802;37.404;2022-11-15T04:37:49;99995.50;;;2.15;50.92
24620;BME280;12763;55.802;37.404;2022-11-15T04:40:37;99987.34;;;2.15;51.37
24620;BME280;12763;55.802;37.404;2022-11-15T04:43:22;99980.72;;;1.73;52.61
24620;BME280;12763;55.802;37.404;2022-11-15T04:46:06;99985.75;;;1.68;53.03
24620;BME280;12763;55.802;37.404;2022-11-15T04:48:54;99985.34;;;1.90;51.95
24620;BME280;12763;55.802;37.404;2022-11-15T04:51:42;99990.50;;;1.93;52.16
24620;BME280;12763;55.802;37.404;2022-11-15T04:54:26;99980.25;;;1.77;51.88
24620;BME280;12763;55.802;37.404;2022-11-15T04:57:11;99980.22;;;2.05;51.83
24620;BME280;12763;55.802;37.404;2022-11-15T04:59:56;99976.97;;;2.19;51.38
24620;BME280;12763;55.802;37.404;2022-11-15T05:02:40;99971.91;;;2.06;51.45
24620;BME280;12763;55.802;37.404;2022-11-15T05:05:44;99978.78;;;1.83;52.10
24620;BME280;12763;55.802;37.404;2022-11-15T05:08:29;99967.59;;;1.86;52.03
24620;BME280;12763;55.802;37.404;2022-11-15T05:11:14;99974.63;;;2.06;51.87
24620;BME280;12763;55.802;37.404;2022-11-15T05:13:59;99960.78;;;2.17;51.53
24620;BME280;12763;55.802;37.404;2022-11-15T05:16:44;99976.03;;;2.10;51.58
24620;BME280;12763;55.802;37.404;2022-11-15T05:19:32;99978.59;;;2.12;51.68
24620;BME280;12763;55.802;37.404;2022-11-15T05:22:18;99966.69;;;2.13;51.67
24620;BME280;12763;55.802;37.404;2022-11-15T05:25:03;99966.28;;;1.90;51.98
24620;BME280;12763;55.802;37.404;2022-11-15T05:27:48;99961.97;;;2.15;51.62
24620;BME280;12763;55.802;37.404;2022-11-15T05:30:33;99965.22;;;2.18;51.26
24620;BME280;12763;55.802;37.404;2022-11-15T05:33:18;99963.59;;;2.25;51.44
24620;BME280;12763;55.802;37.404;2022-11-15T05:39:17;99956.50;;;2.32;50.49
24620;BME280;12763;55.802;37.404;2022-11-15T05:42:13;99953.53;;;2.44;50.54
24620;BME280;12763;55.802;37.404;2022-11-15T05:44:59;99956.28;;;2.08;51.37
24620;BME280;12763;55.802;37.404;2022-11-15T05:47:47;99956.72;;;2.21;51.00
24620;BME280;12763;55.802;37.404;2022-11-15T05:50:44;99955.44;;;2.25;50.93
24620;BME280;12763;55.802;37.404;2022-11-15T05:53:31;99947.56;;;2.40;50.87
24620;BME280;12763;55.802;37.404;2022-11-15T05:56:19;99950.97;;;2.24;50.79
24620;BME280;12763;55.802;37.404;2022-11-15T05:59:04;99954.72;;;2.41;50.47
24620;BME280;12763;55.802;37.404;2022-11-15T06:01:48;99944.19;;;2.46;50.53
24620;BME280;12763;55.802;37.404;2022-11-15T06:04:33;99942.56;;;2.35;50.78
24620;BME280;12763;55.802;37.404;2022-11-15T06:07:18;99942.97;;;2.23;50.92
24620;BME280;12763;55.802;37.404;2022-11-15T06:10:04;99935.19;;;2.28;51.15
24620;BME280;12763;55.802;37.404;2022-11-15T06:12:59;99929.25;;;2.50;50.77
24620;BME280;12763;55.802;37.404;2022-11-15T06:15:44;99933.41;;;2.36;51.04
24620;BME280;12763;55.802;37.404;2022-11-15T06:18:32;99938.28;;;2.33;51.05
24620;BME280;12763;55.802;37.404;2022-11-15T06:21:19;99937.69;;;2.39;51.07
24620;BME280;12763;55.802;37.404;2022-11-15T06:24:05;99939.47;;;2.30;51.42
24620;BME280;12763;55.802;37.404;2022-11-15T06:26:50;99933.41;;;2.01;51.70
24620;BME280;12763;55.802;37.404;2022-11-15T06:29:34;99921.50;;;2.20;51.65
24620;BME280;12763;55.802;37.404;2022-11-15T06:32:20;99919.41;;;2.31;51.14
24620;BME280;12763;55.802;37.404;2022-11-15T06:35:05;99920.16;;;2.24;51.60
24620;BME280;12763;55.802;37.404;2022-11-15T06:37:49;99912.53;;;2.27;51.63
24620;BME280;12763;55.802;37.404;2022-11-15T06:40:39;99918.28;;;2.42;51.04
24620;BME280;12763;55.802;37.404;2022-11-15T06:43:24;99910.06;;;2.34;51.02
24620;BME280;12763;55.802;37.404;2022-11-15T06:46:09;99903.88;;;2.32;51.18
24620;BME280;12763;55.802;37.404;2022-11-15T06:48:57;99893.41;;;2.63;51.33
24620;BME280;12763;55.802;37.404;2022-11-15T06:51:42;99889.50;;;2.65;50.97
24620;BME280;12763;55.802;37.404;2022-11-15T06:54:27;99895.91;;;2.82;50.62
24620;BME280;12763;55.802;37.404;2022-11-15T06:57:11;99896.59;;;2.76;50.44
24620;BME280;12763;55.802;37.404;2022-11-15T06:59:56;99892.31;;;2.73;50.64
24620;BME280;12763;55.802;37.404;2022-11-15T07:02:43;99880.97;;;2.60;51.01
24620;BME280;12763;55.802;37.404;2022-11-15T07:05:29;99883.22;;;2.65;51.10
24620;BME280;12763;55.802;37.404;2022-11-15T07:08:16;99880.78;;;2.87;50.23
24620;BME280;12763;55.802;37.404;2022-11-15T07:11:04;99878.59;;;2.91;50.02
24620;BME280;12763;55.802;37.404;2022-11-15T07:13:52;99878.25;;;2.86;49.88
24620;BME280;12763;55.802;37.404;2022-11-15T07:16:37;99876.88;;;2.90;50.10
24620;BME280;12763;55.802;37.404;2022-11-15T07:19:21;99879.72;;;3.06;50.00
24620;BME280;12763;55.802;37.404;2022-11-15T07:22:06;99872.66;;;2.95;49.87
24620;BME280;12763;55.802;37.404;2022-11-15T07:24:56;99867.06;;;2.97;49.86
24620;BME280;12763;55.802;37.404;2022-11-15T07:27:42;99866.75;;;3.00;50.41
24620;BME280;12763;55.802;37.404;2022-11-15T07:30:27;99871.34;;;2.74;50.80
24620;BME280;12763;55.802;37.404;2022-11-15T07:33:16;99863.75;;;2.85;50.37
24620;BME280;12763;55.802;37.404;2022-11-15T07:36:12;99857.75;;;2.82;51.00
24620;BME280;12763;55.802;37.404;2022-11-15T07:39:00;99845.50;;;2.78;50.56
24620;BME280;12763;55.802;37.404;2022-11-15T07:41:46;99846.84;;;2.82;49.89
24620;BME280;12763;55.802;37.404;2022-11-15T07:44:32;99837.75;;;2.99;50.48
24620;BME280;12763;55.802;37.404;2022-11-15T07:47:17;99849.13;;;2.86;50.15
24620;BME280;12763;55.802;37.404;2022-11-15T07:50:02;99847.69;;;2.74;50.27
24620;BME280;12763;55.802;37.404;2022-11-15T07:52:52;99840.66;;;2.97;50.35
24620;BME280;12763;55.802;37.404;2022-11-15T07:55:40;99836.50;;;2.85;50.34
24620;BME280;12763;55.802;37.404;2022-11-15T07:58:26;99842.41;;;2.73;50.88
24620;BME280;12763;55.802;37.404;2022-11-15T08:01:13;99846.91;;;2.90;50.52
24620;BME280;12763;55.802;37.404;2022-11-15T08:03:58;99839.81;;;2.97;49.95
24620;BME280;12763;55.802;37.404;2022-11-15T08:06:43;99842.59;;;3.13;49.51
24620;BME280;12763;55.802;37.404;2022-11-15T08:09:27;99840.97;;;2.94;49.79
24620;BME280;12763;55.802;37.404;2022-11-15T08:12:12;99839.88;;;3.13;50.30
24620;BME280;12763;55.802;37.404;2022-11-15T08:15:00;99830.63;;;2.98;49.92
24620;BME280;12763;55.802;37.404;2022-11-15T08:17:45;99833.69;;;3.03;49.38
24620;BME280;12763;55.802;37.404;2022-11-15T08:20:33;99824.88;;;3.09;49.49
24620;BME280;12763;55.802;37.404;2022-11-15T08:23:18;99813.53;;;2.96;49.27
24620;BME280;12763;55.802;37.404;2022-11-15T08:26:04;99823.19;;;3.16;49.35
24620;BME280;12763;55.802;37.404;2022-11-15T08:28:49;99823.16;;;2.74;49.62
24620;BME280;12763;55.802;37.404;2022-11-15T08:31:36;99814.63;;;3.03;49.36
24620;BME280;12763;55.802;37.404;2022-11-15T08:34:21;99806.81;;;3.16;49.17
24620;BME280;12763;55.802;37.404;2022-11-15T08:37:06;99811.00;;;3.44;48.61
24620;BME280;12763;55.802;37.404;2022-11-15T08:39:50;99801.78;;;3.45;48.79
24620;BME280;12763;55.802;37.404;2022-11-15T08:42:36;99805.88;;;3.49;48.66
24620;BME280;12763;55.802;37.404;2022-11-15T08:45:20;99804.50;;;3.53;48.46
24620;BME280;12763;55.802;37.404;2022-11-15T08:48:05;99799.56;;;3.49;48.26
24620;BME280;12763;55.802;37.404;2022-11-15T08:50:59;99792.97;;;3.10;49.16
24620;BME280;12763;55.802;37.404;2022-11-15T08:53:44;99793.72;;;3.28;49.27
24620;BME280;12763;55.802;37.404;2022-11-15T08:56:29;99791.31;;;3.17;49.57
24620;BME280;12763;55.802;37.404;2022-11-15T08:59:14;99795.06;;;3.16;49.29
24620;BME280;12763;55.802;37.404;2022-11-15T09:01:58;99796.25;;;3.21;49.45
24620;BME280;12763;55.802;37.404;2022-11-15T09:04:48;99791.88;;;3.28;49.12
24620;BME280;12763;55.802;37.404;2022-11-15T09:07:36;99790.81;;;3.29;49.62
24620;BME280;12763;55.802;37.404;2022-11-15T09:10:21;99784.03;;;3.33;49.83
24620;BME280;12763;55.802;37.404;2022-11-15T09:13:06;99783.00;;;3.34;49.71
24620;BME280;12763;55.802;37.404;2022-11-15T09:15:51;99777.59;;;3.42;49.48
24620;BME280;12763;55.802;37.404;2022-11-15T09:18:36;99771.75;;;3.37;49.49
24620;BME280;12763;55.802;37.404;2022-11-15T09:21:28;99773.50;;;3.54;49.47
24620;BME280;12763;55.802;37.404;2022-11-15T09:24:17;99765.03;;;3.08;49.91
24620;BME280;12763;55.802;37.404;2022-11-15T09:27:05;99763.56;;;3.29;49.70
24620;BME280;12763;55.802;37.404;2022-11-15T09:29:49;99749.94;;;3.37;50.03
24620;BME280;12763;55.802;37.404;2022-11-15T09:32:34;99743.13;;;3.49;49.78
24620;BME280;12763;55.802;37.404;2022-11-15T09:35:18;99746.22;;;3.54;49.84
24620;BME280;12763;55.802;37.404;2022-11-15T09:38:03;99751.94;;;3.19;50.04
24620;BME280;12763;55.802;37.404;2022-11-15T09:40:49;99753.59;;;3.04;50.54
24620;BME280;12763;55.802;37.404;2022-11-15T09:47:05;99755.69;;;3.18;50.21
24620;BME280;12763;55.802;37.404;2022-11-15T09:49:57;99753.66;;;3.20;50.68
24620;BME280;12763;55.802;37.404;2022-11-15T09:52:46;99746.88;;;3.40;50.81
24620;BME280;12763;55.802;37.404;2022-11-15T09:55:15;99754.38;;;3.46;49.78
24620;BME280;12763;55.802;37.404;2022-11-15T09:57:59;99749.25;;;3.35;51.11
24620;BME280;12763;55.802;37.404;2022-11-15T10:00:38;99744.63;;;3.28;50.77
24620;BME280;12763;55.802;37.404;2022-11-15T10:05:41;99743.78;;;3.35;51.33
24620;BME280;12763;55.802;37.404;2022-11-15T10:11:07;99733.56;;;3.37;51.00
24620;BME280;12763;55.802;37.404;2022-11-15T10:13:40;99727.63;;;3.34;50.64
24620;BME280;12763;55.802;37.404;2022-11-15T10:19:14;99714.09;;;3.16;51.98
24620;BME280;12763;55.802;37.404;2022-11-15T10:24:45;99707.97;;;3.14;51.64
24620;BME280;12763;55.802;37.404;2022-11-15T10:27:18;99703.31;;;3.07;52.12
24620;BME280;12763;55.802;37.404;2022-11-15T10:29:50;99701.78;;;3.04;51.87
24620;BME280;12763;55.802;37.404;2022-11-15T10:32:20;99700.56;;;2.90;51.82
24620;BME280;12763;55.802;37.404;2022-11-15T10:34:48;99697.06;;;3.06;52.04
24620;BME280;12763;55.802;37.404;2022-11-15T10:37:30;99680.69;;;3.14;52.07
24620;BME280;12763;55.802;37.404;2022-11-15T10:40:21;99681.56;;;3.23;52.14
24620;BME280;12763;55.802;37.404;2022-11-15T10:45:55;99684.13;;;3.24;52.03
24620;BME280;12763;55.802;37.404;2022-11-15T10:48:24;99667.41;;;3.35;52.11
24620;BME280;12763;55.802;37.404;2022-11-15T10:50:52;99676.78;;;3.57;51.27
24620;BME280;12763;55.802;37.404;2022-11-15T10:56:24;99664.00;;;3.25;51.55
24620;BME280;12763;55.802;37.404;2022-11-15T10:58:53;99659.91;;;3.21;51.94
24620;BME280;12763;55.802;37.404;2022-11-15T11:01:26;99660.94;;;3.20;52.20
24620;BME280;12763;55.802;37.404;2022-11-15T11:04:08;99665.31;;;2.97;52.31
24620;BME280;12763;55.802;37.404;2022-11-15T11:09:36;99662.63;;;3.37;51.98
24620;BME280;12763;55.802;37.404;2022-11-15T11:12:10;99661.63;;;3.30;51.77
24620;BME280;12763;55.802;37.404;2022-11-15T11:14:38;99649.00;;;3.37;51.58
24620;BME280;12763;55.802;37.404;2022-11-15T11:20:07;99644.47;;;2.72;53.09
24620;BME280;12763;55.802;37.404;2022-11-15T11:25:19;99644.38;;;2.97;54.08
24620;BME280;12763;55.802;37.404;2022-11-15T11:28:14;99633.28;;;3.07;54.00
24620;BME280;12763;55.802;37.404;2022-11-15T11:31:10;99632.63;;;3.29;54.05
24620;BME280;12763;55.802;37.404;2022-11-15T11:36:28;99630.25;;;3.18;53.88
24620;BME280;12763;55.802;37.404;2022-11-15T11:39:18;99631.63;;;3.30;54.18
24620;BME280;12763;55.802;37.404;2022-11-15T11:41:50;99635.03;;;3.32;54.46
24620;BME280;12763;55.802;37.404;2022-11-15T11:44:33;99625.16;;;3.31;54.50
24620;BME280;12763;55.802;37.404;2022-11-15T11:47:23;99625.44;;;3.04;55.83
24620;BME280;12763;55.802;37.404;2022-11-15T11:49:51;99628.13;;;2.72;57.37
24620;BME280;12763;55.802;37.404;2022-11-15T11:52:26;99621.84;;;2.29;59.22
24620;BME280;12763;55.802;37.404;2022-11-15T11:54:55;99621.94;;;2.46;59.21
24620;BME280;12763;55.802;37.404;2022-11-15T11:57:52;99610.03;;;2.55;59.52
24620;BME280;12763;55.802;37.404;2022-11-15T12:00:23;99612.31;;;2.75;58.97
24620;BME280;12763;55.802;37.404;2022-11-15T12:03:14;99609.41;;;2.93;58.99
24620;BME280;12763;55.802;37.404;2022-11-15T12:05:50;99609.78;;;2.98;59.53
24620;BME280;12763;55.802;37.404;2022-11-15T12:08:46;99608.06;;;2.81;60.47
24620;BME280;12763;55.802;37.404;2022-11-15T12:14:15;99605.81;;;2.68;62.25
24620;BME280;12763;55.802;37.404;2022-11-15T12:16:46;99600.72;;;2.73;61.41
24620;BME280;12763;55.802;37.404;2022-11-15T12:19:13;99595.63;;;2.78;62.23
24620;BME280;12763;55.802;37.404;2022-11-15T12:24:22;99586.06;;;2.74;63.20
24620;BME280;12763;55.802;37.404;2022-11-15T12:27:05;99583.34;;;2.66;63.87
24620;BME280;12763;55.802;37.404;2022-11-15T12:29:45;99584.13;;;2.43;65.61
24620;BME280;12763;55.802;37.404;2022-11-15T12:32:35;99583.06;;;2.27;67.33
24620;BME280;12763;55.802;37.404;2022-11-15T12:35:06;99580.69;;;2.32;66.57
24620;BME280;12763;55.802;37.404;2022-11-15T12:37:50;99570.78;;;2.15;68.42
24620;BME280;12763;55.802;37.404;2022-11-15T12:40:28;99568.78;;;2.33;68.46
24620;BME280;12763;55.802;37.404;2022-11-15T12:45:44;99557.94;;;2.50;68.84
24620;BME280;12763;55.802;37.404;2022-11-15T13:01:08;99543.59;;;2.31;72.30
24620;BME280;12763;55.802;37.404;2022-11-15T13:04:13;99535.78;;;2.36;72.76
24620;BME280;12763;55.802;37.404;2022-11-15T13:07:08;99531.00;;;2.38;72.97
24620;BME280;12763;55.802;37.404;2022-11-15T13:17:31;99517.72;;;2.35;73.80
24620;BME280;12763;55.802;37.404;2022-11-15T13:22:59;99517.72;;;2.35;74.85
24620;BME280;12763;55.802;37.404;2022-11-15T13:28:22;99505.28;;;2.25;75.10
24620;BME280;12763;55.802;37.404;2022-11-15T13:30:58;99501.53;;;2.26;75.54
24620;BME280;12763;55.802;37.404;2022-11-15T13:35:56;99506.69;;;2.37;74.96
24620;BME280;12763;55.802;37.404;2022-11-15T13:38:31;99507.00;;;2.26;75.78
24620;BME280;12763;55.802;37.404;2022-11-15T13:41:21;99497.63;;;2.20;76.97
24620;BME280;12763;55.802;37.404;2022-11-15T13:43:49;99498.88;;;1.92;78.93
24620;BME280;12763;55.802;37.404;2022-11-15T13:46:22;99493.66;;;2.07;78.08
24620;BME280;12763;55.802;37.404;2022-11-15T13:49:05;99494.88;;;2.12;78.00
24620;BME280;12763;55.802;37.404;2022-11-15T13:51:42;99495.75;;;2.21;78.01
24620;BME280;12763;55.802;37.404;2022-11-15T13:56:44;99492.66;;;2.16;78.57
24620;BME280;12763;55.802;37.404;2022-11-15T13:59:44;99485.66;;;2.05;78.28
24620;BME280;12763;55.802;37.404;2022-11-15T14:02:15;99481.91;;;1.98;78.41
24620;BME280;12763;55.802;37.404;2022-11-15T14:05:11;99476.78;;;1.95;79.43
24620;BME280;12763;55.802;37.404;2022-11-15T14:07:40;99480.53;;;2.02;79.52
24620;BME280;12763;55.802;37.404;2022-11-15T14:10:29;99475.09;;;2.02;79.39
24620;BME280;12763;55.802;37.404;2022-11-15T14:12:57;99480.63;;;1.68;81.04
24620;BME280;12763;55.802;37.404;2022-11-15T14:15:33;99474.75;;;1.97;79.90
24620;BME280;12763;55.802;37.404;2022-11-15T14:18:00;99469.31;;;1.97;80.13
24620;BME280;12763;55.802;37.404;2022-11-15T14:20:39;99471.59;;;2.18;80.05
24620;BME280;12763;55.802;37.404;2022-11-15T14:23:19;99460.81;;;2.08;80.68
24620;BME280;12763;55.802;37.404;2022-11-15T14:25:56;99460.81;;;2.08;80.07
24620;BME280;12763;55.802;37.404;2022-11-15T14:30:54;99469.34;;;2.13;81.33
24620;BME280;12763;55.802;37.404;2022-11-15T14:33:35;99465.94;;;2.11;81.56
24620;BME280;12763;55.802;37.404;2022-11-15T14:36:16;99463.41;;;2.10;81.58
24620;BME280;12763;55.802;37.404;2022-11-15T14:38:46;99464.06;;;2.04;81.35
24620;BME280;12763;55.802;37.404;2022-11-15T14:43:44;99448.72;;;1.95;81.43
24620;BME280;12763;55.802;37.404;2022-11-15T14:46:13;99437.94;;;1.77;82.50
24620;BME280;12763;55.802;37.404;2022-11-15T14:48:43;99431.50;;;1.78;82.50
24620;BME280;12763;55.802;37.404;2022-11-15T14:51:18;99428.75;;;1.70;82.98
24620;BME280;12763;55.802;37.404;2022-11-15T14:53:48;99430.25;;;1.64;82.13
24620;BME280;12763;55.802;37.404;2022-11-15T14:56:15;99431.13;;;1.65;82.43
24620;BME280;12763;55.802;37.404;2022-11-15T14:58:45;99431.28;;;1.71;82.35
24620;BME280;12763;55.802;37.404;2022-11-15T15:01:25;99429.47;;;1.96;81.68
24620;BME280;12763;55.802;37.404;2022-11-15T15:03:53;99425.91;;;1.88;81.69
24620;BME280;12763;55.802;37.404;2022-11-15T15:06:21;99421.84;;;1.92;81.71
24620;BME280;12763;55.802;37.404;2022-11-15T15:08:47;99427.28;;;1.92;81.49
24620;BME280;12763;55.802;37.404;2022-11-15T15:11:23;99419.47;;;2.05;82.15
24620;BME280;12763;55.802;37.404;2022-11-15T15:13:50;99415.91;;;2.04;81.76
24620;BME280;12763;55.802;37.404;2022-11-15T15:16:19;99414.41;;;2.10;81.27
24620;BME280;12763;55.802;37.404;2022-11-15T15:18:45;99407.41;;;2.07;82.18
24620;BME280;12763;55.802;37.404;2022-11-15T15:21:26;99407.91;;;2.11;82.08
24620;BME280;12763;55.802;37.404;2022-11-15T15:23:57;99408.09;;;2.01;82.59
24620;BME280;12763;55.802;37.404;2022-11-15T15:26:23;99407.22;;;1.93;82.83
24620;BME280;12763;55.802;37.404;2022-11-15T15:28:49;99402.63;;;1.93;82.37
24620;BME280;12763;55.802;37.404;2022-11-15T15:31:18;99397.53;;;1.90;81.63
24620;BME280;12763;55.802;37.404;2022-11-15T15:33:46;99395.47;;;1.92;81.15
24620;BME280;12763;55.802;37.404;2022-11-15T15:36:17;99402.28;;;1.96;81.36
24620;BME280;12763;55.802;37.404;2022-11-15T15:38:44;99394.63;;;1.92;80.78
24620;BME280;12763;55.802;37.404;2022-11-15T15:41:13;99390.34;;;1.81;81.65
24620;BME280;12763;55.802;37.404;2022-11-15T15:43:43;99381.34;;;1.81;81.59
24620;BME280;12763;55.802;37.404;2022-11-15T15:46:13;99380.16;;;1.91;81.32
24620;BME280;12763;55.802;37.404;2022-11-15T15:48:40;99366.88;;;1.88;81.66
24620;BME280;12763;55.802;37.404;2022-11-15T15:51:15;99365.22;;;2.03;81.90
24620;BME280;12763;55.802;37.404;2022-11-15T15:53:42;99364.34;;;2.03;81.47
24620;BME280;12763;55.802;37.404;2022-11-15T15:56:11;99370.31;;;1.90;82.08
24620;BME280;12763;55.802;37.404;2022-11-15T15:58:38;99366.56;;;1.91;82.30
24620;BME280;12763;55.802;37.404;2022-11-15T16:01:05;99359.78;;;2.03;82.25
24620;BME280;12763;55.802;37.404;2022-11-15T16:03:31;99365.69;;;1.83;82.53
24620;BME280;12763;55.802;37.404;2022-11-15T16:05:58;99364.50;;;1.85;82.21
24620;BME280;12763;55.802;37.404;2022-11-15T16:08:28;99355.31;;;1.78;82.40
24620;BME280;12763;55.802;37.404;2022-11-15T16:10:56;99356.31;;;1.77;83.11
24620;BME280;12763;55.802;37.404;2022-11-15T16:13:22;99360.91;;;1.68;83.12